Time;durP1;ratioP1;P1;durP2;ratioP2;P2;SDS_P1;SDS_P2;PMS_P1;PMS_P2;Temp;Humidity;BMP_temperature;BMP_pressure;BME280_temperature;BME280_humidity;BME280_pressure;Samples;Min_cycle;Max_cycle;Signal;HPM_P1;HPM_P2
2022/06/23 00:01:49;;;;;;;5.03;4.63;;;;;;;27.64;33.34;96662.88;5106062;28;20028;-35
2022/06/23 00:04:18;;;;;;;4.78;4.32;;;;;;;27.68;33.37;96666.09;5107732;28;20036;-34
2022/06/23 00:06:48;;;;;;;4.60;4.20;;;;;;;27.76;33.55;96662.13;5113591;28;20080;-34
2022/06/23 00:09:36;;;;;;;6.22;4.55;;;;;;;27.77;34.20;96657.28;5113831;28;20030;-34
2022/06/23 00:12:24;;;;;;;4.65;4.25;;;;;;;27.64;34.32;96671.22;5112363;28;20053;-34
2022/06/23 00:14:59;;;;;;;4.82;4.43;;;;;;;27.74;33.81;96663.94;5112714;28;20098;-34
2022/06/23 00:17:31;;;;;;;5.43;4.20;;;;;;;27.59;34.70;96658.13;5113511;28;20020;-34
2022/06/23 00:20:01;;;;;;;5.50;5.00;;;;;;;27.69;34.23;96662.03;5113468;28;20043;-34
2022/06/23 00:22:30;;;;;;;4.90;4.45;;;;;;;27.69;34.38;96659.25;5113590;28;20110;-34
2022/06/23 00:24:59;;;;;;;4.80;4.40;;;;;;;27.70;34.13;96657.94;5113400;28;20019;-34
2022/06/23 00:27:31;;;;;;;4.88;4.43;;;;;;;27.70;34.91;96663.50;5113419;28;20039;-34
2022/06/23 00:30:03;;;;;;;7.85;4.53;;;;;;;27.64;34.97;96669.19;5113515;28;20027;-34
2022/06/23 00:32:30;;;;;;;4.93;4.47;;;;;;;27.71;34.69;96668.53;5113525;28;20479;-34
2022/06/23 00:35:01;;;;;;;6.20;4.55;;;;;;;27.65;35.16;96667.16;5113148;28;20028;-34
2022/06/23 00:37:28;;;;;;;5.05;4.63;;;;;;;27.67;35.05;96664.59;5113485;28;20027;-35
2022/06/23 00:40:00;;;;;;;4.85;4.28;;;;;;;27.66;34.59;96669.41;5111940;28;20024;-34
2022/06/23 00:42:29;;;;;;;6.70;4.57;;;;;;;27.71;35.08;96665.00;5115120;28;20065;-34
2022/06/23 00:45:40;;;;;;;5.50;4.18;;;;;;;27.62;34.89;96668.22;5116976;28;20023;-34
2022/06/23 00:48:46;;;;;;;4.97;4.43;;;;;;;27.59;34.83;96663.72;5117015;28;20153;-34
2022/06/23 00:51:19;;;;;;;6.85;4.38;;;;;;;27.68;34.94;96666.84;5074314;28;20025;-34
2022/06/23 00:53:53;;;;;;;;;;;;;;;27.60;35.67;96670.78;5074590;28;20032;-34
2022/06/23 00:56:19;;;;;;;4.75;4.18;;;;;;;27.67;35.66;96665.34;5073935;28;19995;-34
2022/06/23 00:58:49;;;;;;;6.03;4.28;;;;;;;27.65;35.48;96672.72;5074253;28;20467;-34
2022/06/23 01:01:17;;;;;;;5.53;4.88;;;;;;;27.65;35.81;96672.72;5074189;28;20032;-34
2022/06/23 01:03:57;;;;;;;5.85;4.88;;;;;;;27.65;35.59;96667.16;5074130;28;20171;-34
2022/06/23 01:06:38;;;;;;;6.10;4.78;;;;;;;27.62;35.90;96668.22;5057424;28;20020;-34
2022/06/23 01:09:37;;;;;;;5.00;4.43;;;;;;;27.68;35.52;96678.00;5073882;28;20449;-34
2022/06/23 01:12:21;;;;;;;6.22;4.75;;;;;;;27.67;35.79;96675.75;5074089;28;20579;-34
2022/06/23 01:14:55;;;;;;;5.03;4.63;;;;;;;27.60;36.23;96676.34;5073834;28;20055;-34
2022/06/23 01:17:43;;;;;;;5.80;4.60;;;;;;;27.69;36.24;96685.06;5073975;28;20036;-34
2022/06/23 01:20:27;;;;;;;4.72;4.32;;;;;;;27.68;36.58;96686.34;5073874;28;20031;-34
2022/06/23 01:23:16;;;;;;;5.72;4.85;;;;;;;27.62;36.00;96694.03;5112702;28;20051;-34
2022/06/23 01:26:06;;;;;;;4.47;4.00;;;;;;;27.61;36.24;96684.19;5116520;28;20020;-34
2022/06/23 01:28:39;;;;;;;5.38;4.88;;;;;;;27.70;36.08;96680.22;5116042;28;20464;-34
2022/06/23 01:31:10;;;;;;;6.97;4.68;;;;;;;27.63;36.21;96683.66;5116260;28;20051;-35
2022/06/23 01:33:42;;;;;;;4.88;4.45;;;;;;;27.70;36.16;96688.56;5116208;28;20483;-34
2022/06/23 01:36:33;;;;;;;4.70;4.30;;;;;;;27.63;35.89;96687.19;5116207;28;20513;-34
2022/06/23 01:39:24;;;;;;;5.65;4.57;;;;;;;27.69;36.44;96678.75;5094119;28;20032;-34
2022/06/23 01:42:12;;;;;;;5.18;4.20;;;;;;;27.68;36.45;96688.38;5115644;28;20030;-34
2022/06/23 01:45:09;;;;;;;4.57;4.15;;;;;;;27.78;36.55;96692.25;5116091;28;20102;-34
2022/06/23 01:47:46;;;;;;;6.32;4.32;;;;;;;27.63;36.67;96692.00;5116303;28;20023;-34
2022/06/23 01:50:12;;;;;;;5.90;4.53;;;;;;;27.64;37.42;96699.09;5115732;28;20057;-34
2022/06/23 01:52:38;;;;;;;5.18;4.68;;;;;;;27.61;36.89;96695.34;5115925;28;20050;-34
2022/06/23 01:55:14;;;;;;;4.88;4.20;;;;;;;27.67;37.20;96693.22;5114741;28;20023;-34
2022/06/23 01:57:48;;;;;;;5.07;4.57;;;;;;;27.66;36.94;96696.53;5115572;28;20063;-34
2022/06/23 02:00:19;;;;;;;6.22;4.90;;;;;;;27.66;37.07;96691.69;5113710;28;20023;-34
2022/06/23 02:03:10;;;;;;;5.13;4.63;;;;;;;27.68;37.94;96685.59;5113607;27;20057;-34
2022/06/23 02:05:36;;;;;;;4.93;4.03;;;;;;;27.71;36.53;96682.47;5115537;27;20024;-34
2022/06/23 02:08:25;;;;;;;5.28;4.75;;;;;;;27.64;37.30;96688.69;5115951;28;20024;-34
2022/06/23 02:11:33;;;;;;;4.78;4.18;;;;;;;27.67;37.32;96690.41;5095523;28;20077;-34
2022/06/23 02:14:34;;;;;;;6.50;4.63;;;;;;;27.68;37.78;96683.56;5115526;28;20024;-34
2022/06/23 02:17:23;;;;;;;5.75;4.65;;;;;;;27.66;37.43;96679.81;5072572;28;20037;-34
2022/06/23 02:19:55;;;;;;;5.60;4.35;;;;;;;27.72;36.96;96674.88;5072699;28;20101;-34
2022/06/23 02:22:31;;;;;;;5.22;4.25;;;;;;;27.69;38.01;96670.38;5072900;28;20090;-34
2022/06/23 02:25:16;;;;;;;5.30;4.35;;;;;;;27.71;37.18;96659.44;5072366;28;20044;-34
2022/06/23 02:27:50;;;;;;;5.03;4.43;;;;;;;27.68;37.72;96655.69;5072559;28;20522;-34
2022/06/23 02:30:50;;;;;;;5.07;4.47;;;;;;;27.71;37.14;96671.31;5072308;28;20108;-34
2022/06/23 02:33:41;;;;;;;4.97;4.45;;;;;;;27.72;37.66;96660.94;5072343;28;20040;-34
2022/06/23 02:36:33;;;;;;;5.95;4.22;;;;;;;27.73;37.75;96670.78;5072644;28;20028;-34
2022/06/23 02:39:05;;;;;;;5.63;4.68;;;;;;;27.71;37.82;96670.56;5055400;28;20392;-34
2022/06/23 02:41:49;;;;;;;6.32;4.63;;;;;;;27.67;37.50;96670.16;5072101;28;20043;-34
2022/06/23 02:44:35;;;;;;;5.38;4.63;;;;;;;27.70;38.02;96671.84;5072208;28;20082;-35
2022/06/23 02:47:19;;;;;;;5.45;4.50;;;;;;;27.66;37.73;96677.78;5072089;28;20063;-34
2022/06/23 02:50:25;;;;;;;5.95;3.80;;;;;;;27.68;37.71;96678.00;5072472;28;20028;-34
2022/06/23 02:53:09;;;;;;;4.95;3.85;;;;;;;27.68;38.50;96678.00;5097928;28;20401;-34
2022/06/23 02:55:53;;;;;;;5.00;4.60;;;;;;;27.63;37.92;96680.88;5114594;28;20062;-34
2022/06/23 02:58:29;;;;;;;5.07;3.92;;;;;;;27.73;38.70;96676.38;5114179;28;20043;-34
2022/06/23 03:01:04;;;;;;;4.78;4.38;;;;;;;27.68;38.39;96680.78;5114397;28;20356;-34
2022/06/23 03:03:54;;;;;;;5.00;4.40;;;;;;;27.69;38.70;96673.16;5114395;28;20015;-34
2022/06/23 03:06:28;;;;;;;4.65;4.20;;;;;;;27.70;38.94;96674.66;5114162;28;20026;-34
2022/06/23 03:09:20;;;;;;;4.30;3.90;;;;;;;27.69;39.67;96673.16;5114268;28;20131;-34
2022/06/23 03:12:25;;;;;;;4.93;3.40;;;;;;;27.70;40.02;96663.50;5114414;28;20030;-34
2022/06/23 03:15:01;;;;;;;5.65;4.85;;;;;;;27.68;40.03;96666.09;5113100;28;20160;-34
2022/06/23 03:17:37;;;;;;;5.35;4.20;;;;;;;27.69;39.22;96667.59;5114207;28;20031;-34
2022/06/23 03:20:10;;;;;;;6.63;3.92;;;;;;;27.69;38.56;96667.59;5114119;28;20031;-34
2022/06/23 03:22:53;;;;;;;4.60;4.05;;;;;;;27.71;38.86;96670.56;5114116;28;20031;-34
2022/06/23 03:25:22;;;;;;;4.00;3.60;;;;;;;27.69;39.34;96662.03;5114334;28;20047;-34
2022/06/23 03:28:27;;;;;;;7.03;3.95;;;;;;;27.67;39.50;96675.75;5114295;28;20023;-34
2022/06/23 03:31:02;;;;;;;4.38;3.70;;;;;;;27.63;39.01;96686.44;5113915;28;20463;-34
2022/06/23 03:33:40;;;;;;;4.40;3.85;;;;;;;27.63;38.71;96676.06;5114022;28;20061;-35
2022/06/23 03:36:39;;;;;;;4.18;3.53;;;;;;;27.66;39.70;96693.75;5114056;28;20027;-34
2022/06/23 03:42:28;;;;;;;5.13;3.45;;;;;;;27.70;39.70;96694.16;5113754;28;20491;-34
2022/06/23 03:45:04;;;;;;;4.10;3.65;;;;;;;27.65;39.45;96695.78;5114025;28;20020;-34
2022/06/23 03:47:35;;;;;;;5.60;3.90;;;;;;;27.68;39.66;96691.16;5113927;28;20433;-34
2022/06/23 03:50:19;;;;;;;5.60;3.88;;;;;;;27.63;39.29;96680.88;5113711;28;20029;-34
2022/06/23 03:52:58;;;;;;;4.43;3.92;;;;;;;27.64;39.10;96693.53;5113702;28;20024;-34
2022/06/23 03:55:26;;;;;;;5.20;3.90;;;;;;;27.66;39.19;96685.38;5113861;28;20024;-34
2022/06/23 03:57:56;;;;;;;4.78;3.80;;;;;;;27.65;39.24;96681.09;5113682;28;20442;-34
2022/06/23 04:00:34;;;;;;;4.15;3.75;;;;;;;27.67;39.00;96675.75;5112360;28;20102;-34
2022/06/23 04:03:18;;;;;;;8.75;4.00;;;;;;;27.66;38.81;96682.59;5113688;28;20027;-34
2022/06/23 04:05:55;;;;;;;6.82;3.95;;;;;;;27.65;38.95;96679.06;5113913;28;20030;-34
2022/06/23 04:08:30;;;;;;;4.68;3.97;;;;;;;27.64;38.92;96676.81;5112559;28;20494;-34
2022/06/23 04:11:43;;;;;;;4.75;4.07;;;;;;;27.67;38.22;96675.75;5113617;28;20024;-34
2022/06/23 04:13:51;;;;;;;7.78;4.22;;;;;;;27.65;38.31;96678.31;5114160;28;20405;-34
2022/06/23 04:16:23;;;;;;;5.38;4.20;;;;;;;27.61;38.40;96686.22;5113563;28;20023;-34
2022/06/23 04:18:50;;;;;;;5.22;3.75;;;;;;;27.65;37.81;96678.31;5117767;28;20028;-34
2022/06/23 04:21:22;;;;;;;4.85;4.30;;;;;;;27.64;38.12;96677.56;5117615;28;20433;-34
2022/06/23 04:23:55;;;;;;;6.47;4.65;;;;;;;27.63;38.10;96680.88;5117514;28;20051;-34
2022/06/23 04:26:24;;;;;;;;;;;;;;;27.61;37.77;96683.44;5116680;28;20081;-34
2022/06/23 04:29:00;;;;;;;4.30;3.90;;;;;;;27.61;37.51;96689.75;5117499;28;19908;-34
2022/06/23 04:31:36;;;;;;;4.55;4.07;;;;;;;27.61;37.66;96695.34;5117525;27;20019;-34
2022/06/23 04:34:03;;;;;;;6.05;4.50;;;;;;;27.63;37.81;96689.97;5117324;28;20486;-34
2022/06/23 04:36:34;;;;;;;4.97;4.50;;;;;;;27.62;37.43;96690.50;5117401;28;20424;-34
2022/06/23 04:39:08;;;;;;;4.32;3.92;;;;;;;27.61;37.45;96677.88;5115730;28;20042;-34
2022/06/23 04:41:41;;;;;;;4.43;4.03;;;;;;;27.62;37.00;96684.94;5115921;28;20072;-34
2022/06/23 04:44:18;;;;;;;;;;;;;;;27.58;37.29;96690.81;5116394;28;20027;-34
2022/06/23 04:47:01;;;;;;;6.82;4.32;;;;;;;27.59;37.30;96689.53;5117069;28;20419;-34
2022/06/23 04:49:40;;;;;;;4.70;4.05;;;;;;;27.60;37.11;96688.25;5117319;28;20107;-34
2022/06/23 04:52:17;;;;;;;5.65;4.07;;;;;;;27.58;36.83;96690.81;5117009;28;20062;-34
2022/06/23 04:55:14;;;;;;;5.25;4.25;;;;;;;27.57;37.35;96691.38;5117154;28;20063;-34
2022/06/23 04:57:51;;;;;;;6.43;4.18;;;;;;;27.57;37.28;96691.38;5116728;28;20048;-35
2022/06/23 05:00:36;;;;;;;4.30;3.90;;;;;;;27.56;37.43;96693.41;5116836;28;20090;-34
2022/06/23 05:03:13;;;;;;;4.57;4.15;;;;;;;27.60;37.24;96693.06;5115051;27;20047;-34
2022/06/23 05:05:39;;;;;;;6.57;4.22;;;;;;;27.59;37.29;96702.72;5115132;28;20027;-34
2022/06/23 05:08:07;;;;;;;4.47;4.07;;;;;;;27.53;37.37;96711.91;5115049;28;20468;-34
2022/06/23 05:10:48;;;;;;;6.07;4.25;;;;;;;27.56;37.32;96714.94;5114894;28;20076;-35
2022/06/23 05:13:25;;;;;;;4.63;3.63;;;;;;;27.54;37.51;96713.41;5114813;28;20019;-34
2022/06/23 05:15:59;;;;;;;4.85;4.18;;;;;;;27.53;37.70;96713.94;5114709;28;20026;-34
2022/06/23 05:18:29;;;;;;;5.65;4.30;;;;;;;27.51;38.18;96719.28;5114773;28;20063;-34
2022/06/23 05:21:20;;;;;;;4.50;3.95;;;;;;;27.52;37.63;96709.66;5114681;28;20074;-34
2022/06/23 05:23:53;;;;;;;4.30;3.90;;;;;;;27.52;37.91;96721.56;5112407;28;20039;-34
2022/06/23 05:26:27;;;;;;;5.15;4.15;;;;;;;27.51;38.25;96727.66;5114955;28;20387;-34
2022/06/23 05:29:00;;;;;;;4.97;3.78;;;;;;;27.47;38.35;96724.41;5114295;28;20051;-35
2022/06/23 05:31:31;;;;;;;4.70;4.30;;;;;;;27.49;38.49;96727.44;5114662;28;20019;-34
2022/06/23 05:34:02;;;;;;;4.95;4.43;;;;;;;27.53;38.20;96730.66;5114530;28;20383;-34
2022/06/23 05:36:34;;;;;;;7.25;4.05;;;;;;;27.49;38.49;96722.59;5114386;28;20026;-34
2022/06/23 05:39:19;;;;;;;8.63;4.13;;;;;;;27.48;38.64;96721.09;5114383;28;20471;-34
2022/06/23 05:41:50;;;;;;;8.90;4.50;;;;;;;27.47;39.01;96727.22;5112988;28;20058;-34
2022/06/23 05:44:18;;;;;;;7.07;3.83;;;;;;;27.45;38.81;96732.56;5112942;28;20027;-34
2022/06/23 05:46:46;;;;;;;5.20;3.75;;;;;;;27.47;38.99;96736.31;5114236;28;20484;-34
2022/06/23 05:49:26;;;;;;;5.28;4.00;;;;;;;27.44;39.03;96731.06;5114019;28;20030;-34
2022/06/23 05:52:01;;;;;;;4.53;4.10;;;;;;;27.49;38.40;96728.19;5113762;28;20054;-34
2022/06/23 05:54:48;;;;;;;4.13;3.63;;;;;;;27.45;39.10;96732.56;5114253;28;20426;-33
2022/06/23 05:57:43;;;;;;;5.63;3.45;;;;;;;27.47;38.98;96736.31;5114011;28;20051;-34
2022/06/23 06:00:46;;;;;;;6.22;4.03;;;;;;;27.47;39.61;96741.13;5113788;28;20027;-36
2022/06/23 06:03:27;;;;;;;8.60;4.20;;;;;;;27.45;38.94;96738.88;5113737;28;20092;-34
2022/06/23 06:06:01;;;;;;;7.15;3.97;;;;;;;27.47;38.86;96727.97;5113968;28;20077;-34
2022/06/23 06:08:31;;;;;;;7.05;4.22;;;;;;;27.44;38.91;96723.47;5113698;28;20106;-34
2022/06/23 06:11:00;;;;;;;6.05;4.00;;;;;;;27.44;39.21;96719.94;5113806;28;20015;-34
2022/06/23 06:13:36;;;;;;;4.50;3.25;;;;;;;27.49;39.52;96724.66;5113756;28;20133;-35
2022/06/23 06:16:04;;;;;;;7.45;3.50;;;;;;;27.48;38.71;96737.06;5111991;28;20559;-34
2022/06/23 06:18:35;;;;;;;4.88;3.78;;;;;;;27.48;38.76;96751.75;5113481;28;20039;-34
2022/06/23 06:21:04;;;;;;;6.60;3.85;;;;;;;27.48;38.34;96757.31;5113649;28;20594;-34
2022/06/23 06:23:45;;;;;;;6.32;3.55;;;;;;;27.49;38.66;96763.63;5113534;28;20038;-34
2022/06/23 06:26:15;;;;;;;5.93;3.70;;;;;;;27.51;38.73;96769.44;5113543;28;20050;-34
2022/06/23 06:28:42;;;;;;;5.47;3.97;;;;;;;27.47;38.64;96769.75;5113165;28;20458;-35
2022/06/23 06:31:58;;;;;;;6.22;3.92;;;;;;;27.41;38.63;96769.09;5113436;28;20444;-34
2022/06/23 06:35:08;;;;;;;5.45;3.70;;;;;;;27.40;38.83;96767.59;5070288;28;20033;-34
2022/06/23 06:37:40;;;;;;;5.82;3.88;;;;;;;27.43;39.10;96772.09;5069734;28;20028;-34
2022/06/23 06:40:06;;;;;;;5.63;3.90;;;;;;;27.41;38.59;96771.13;5069226;28;20040;-34
2022/06/23 06:42:57;;;;;;;4.32;3.40;;;;;;;27.39;39.13;96774.44;5070199;28;20121;-34
2022/06/23 06:45:32;;;;;;;5.00;4.18;;;;;;;27.39;39.33;96782.78;5067751;28;20044;-34
2022/06/23 06:48:01;;;;;;;4.63;3.55;;;;;;;27.46;38.68;96790.53;5070129;28;20059;-35
2022/06/23 06:50:46;;;;;;;7.05;4.25;;;;;;;27.44;38.57;96790.31;5069730;28;20549;-34
2022/06/23 06:53:32;;;;;;;3.80;3.50;;;;;;;27.36;38.55;96797.03;5069745;28;20074;-34
2022/06/23 06:56:06;;;;;;;4.60;3.75;;;;;;;27.39;39.12;96801.53;5052269;28;20068;-35
2022/06/23 06:59:03;;;;;;;5.32;3.78;;;;;;;27.40;38.95;96798.22;5069551;28;20056;-34
2022/06/23 07:01:33;;;;;;;6.22;3.72;;;;;;;27.34;38.77;96799.56;5069536;28;20090;-35
2022/06/23 07:03:59;;;;;;;4.25;3.80;;;;;;;27.32;39.18;96802.91;5073562;28;20028;-34
2022/06/23 07:06:31;;;;;;;3.90;3.60;;;;;;;27.37;39.33;96799.28;5103826;28;20379;-34
2022/06/23 07:09:31;;;;;;;6.38;3.55;;;;;;;27.48;38.69;96804.66;5094051;28;20545;-34
2022/06/23 07:12:04;;;;;;;4.55;4.07;;;;;;;27.25;39.46;96806.31;5093753;28;20031;-34
2022/06/23 07:14:39;;;;;;;5.47;4.00;;;;;;;27.21;39.96;96808.63;5094155;28;20057;-34
2022/06/23 07:17:14;;;;;;;3.75;3.03;;;;;;;27.18;40.27;96809.72;5094832;28;20077;-34
2022/06/23 07:19:54;;;;;;;3.95;3.50;;;;;;;27.16;40.14;96815.06;5104208;28;20384;-34
2022/06/23 07:22:26;;;;;;;6.50;3.60;;;;;;;27.38;39.80;96831.41;5111630;28;20085;-34
2022/06/23 07:25:03;;;;;;;4.97;3.47;;;;;;;27.41;38.88;96833.16;5092751;28;20070;-34
2022/06/23 07:27:42;;;;;;;3.88;3.47;;;;;;;27.31;39.63;96845.97;5113072;28;20106;-34
2022/06/23 07:30:37;;;;;;;5.15;3.15;;;;;;;27.35;39.34;96845.66;5128314;27;20033;-34
2022/06/23 07:33:12;;;;;;;5.97;4.00;;;;;;;27.33;39.96;96846.16;5110005;27;20038;-34
2022/06/23 07:36:15;;;;;;;5.10;3.78;;;;;;;27.32;39.87;96835.59;5134133;27;20052;-34
2022/06/23 07:39:07;;;;;;;6.75;3.40;;;;;;;27.42;39.36;96834.66;5128040;27;20058;-35
2022/06/23 07:41:51;;;;;;;5.05;3.85;;;;;;;27.43;39.43;96832.63;5133933;27;20027;-34
2022/06/23 07:44:34;;;;;;;4.45;3.83;;;;;;;27.46;39.46;96828.75;5134666;27;20026;-34
2022/06/23 07:47:01;;;;;;;4.05;3.58;;;;;;;27.40;41.42;96826.06;5134345;28;20023;-33
2022/06/23 07:49:27;;;;;;;4.15;3.70;;;;;;;27.21;41.77;96822.56;5134542;28;20019;-34
2022/06/23 07:51:55;;;;;;;4.28;3.50;;;;;;;27.06;42.61;96820.25;5135063;27;20019;-34
2022/06/23 07:54:22;;;;;;;4.05;3.67;;;;;;;27.29;40.91;96825.50;5138460;27;20027;-34
2022/06/23 07:56:49;;;;;;;5.65;3.70;;;;;;;26.64;42.76;96829.38;5136590;27;20050;-34
2022/06/23 07:59:18;;;;;;;5.93;3.90;;;;;;;27.01;43.03;96823.09;5138465;27;20027;-35
2022/06/23 08:01:51;;;;;;;6.20;3.60;;;;;;;27.08;42.70;96828.81;5138564;27;20023;-34
2022/06/23 08:04:47;;;;;;;6.38;4.40;;;;;;;27.10;44.08;96842.97;5138467;27;20034;-34
2022/06/23 08:07:14;;;;;;;8.00;4.03;;;;;;;27.07;44.33;96843.28;5138541;27;20037;-35
2022/06/23 08:09:51;;;;;;;5.72;4.07;;;;;;;27.00;44.40;96838.31;5138450;27;20126;-34
2022/06/23 08:12:56;;;;;;;5.65;3.70;;;;;;;26.98;44.89;96844.38;5138300;27;20019;-34
2022/06/23 08:19:04;;;;;;;8.55;3.70;;;;;;;27.04;44.43;96844.31;5138223;27;20088;-34
2022/06/23 08:21:35;;;;;;;5.97;3.53;;;;;;;27.09;44.58;96854.63;5106170;27;20035;-36
2022/06/23 08:24:09;;;;;;;5.40;3.80;;;;;;;27.12;43.71;96859.13;5138054;27;20477;-35
2022/06/23 08:26:36;;;;;;;4.95;3.90;;;;;;;27.14;43.19;96868.47;5138160;27;20023;-34
2022/06/23 08:29:07;;;;;;;4.32;3.35;;;;;;;27.23;43.05;96872.91;5138056;27;20509;-34
2022/06/23 08:31:32;;;;;;;6.40;3.97;;;;;;;27.19;43.37;96878.03;5138340;27;20046;-34
2022/06/23 08:34:00;;;;;;;5.60;3.80;;;;;;;27.17;44.48;96883.38;5138117;27;20479;-34
2022/06/23 08:36:41;;;;;;;4.50;3.75;;;;;;;27.13;44.09;96875.31;5137661;27;20022;-34
2022/06/23 08:39:19;;;;;;;5.45;4.20;;;;;;;27.11;44.21;96872.31;5137815;27;20406;-34
2022/06/23 08:42:06;;;;;;;5.15;3.42;;;;;;;27.11;44.44;96863.94;5138022;27;20038;-34
2022/06/23 08:44:39;;;;;;;4.05;3.60;;;;;;;27.17;43.90;96852.75;5137638;27;20056;-34
2022/06/23 08:47:13;;;;;;;4.60;3.60;;;;;;;27.22;43.56;96854.69;5137527;27;20147;-34
2022/06/23 08:49:47;;;;;;;5.85;3.80;;;;;;;27.24;42.79;96857.69;5137665;27;20035;-34
2022/06/23 08:52:19;;;;;;;6.90;4.40;;;;;;;27.12;44.31;96864.72;5137354;27;20019;-34
2022/06/23 08:54:52;;;;;;;4.20;3.80;;;;;;;27.17;43.63;96859.06;5137557;27;20027;-34
2022/06/23 08:57:20;;;;;;;;;;;;;;;27.07;44.77;96862.75;5137760;27;20081;-34
2022/06/23 08:59:50;;;;;;;5.38;4.20;;;;;;;27.16;44.65;96876.31;5137484;27;19925;-34
2022/06/23 09:02:31;;;;;;;6.97;3.83;;;;;;;27.08;44.68;96861.47;5136910;27;20444;-34
2022/06/23 09:05:14;;;;;;;5.38;4.15;;;;;;;27.16;43.92;96862.38;5122850;27;20066;-34
2022/06/23 09:07:49;;;;;;;7.45;4.22;;;;;;;27.22;43.59;96863.03;5094476;28;20028;-35
2022/06/23 09:10:46;;;;;;;10.52;4.10;;;;;;;27.00;45.82;96871.69;5095962;28;20032;-34
2022/06/23 09:13:39;;;;;;;9.27;4.05;;;;;;;27.08;44.31;96872.59;5096129;28;20024;-34
2022/06/23 09:16:34;;;;;;;6.07;3.80;;;;;;;27.19;43.50;96869.69;5094868;28;20028;-34
2022/06/23 09:19:41;;;;;;;5.00;3.88;;;;;;;27.13;45.03;96871.78;5096108;28;20043;-35
2022/06/23 09:22:15;;;;;;;6.90;3.83;;;;;;;27.07;45.56;96871.13;5096503;28;20028;-34
2022/06/23 09:25:18;;;;;;;5.22;3.95;;;;;;;27.13;44.84;96869.00;5095990;28;20122;-34
2022/06/23 09:27:58;;;;;;;6.07;4.63;;;;;;;27.27;43.68;96861.47;5096128;28;20411;-34
2022/06/23 09:31:02;;;;;;;6.95;3.20;;;;;;;27.28;42.95;96880.44;5095817;28;20099;-35
2022/06/23 09:33:55;;;;;;;6.93;4.10;;;;;;;27.19;44.28;96894.75;5073425;28;20040;-35
2022/06/23 09:36:42;;;;;;;6.72;3.97;;;;;;;27.06;45.32;96900.22;5073489;28;20028;-34
2022/06/23 09:39:16;;;;;;;6.70;4.32;;;;;;;27.03;47.13;96910.38;5073369;28;20033;-34
2022/06/23 09:42:03;;;;;;;5.70;4.00;;;;;;;27.18;44.10;96919.06;5073292;28;20024;-34
2022/06/23 09:44:31;;;;;;;6.78;4.20;;;;;;;27.21;45.04;96928.38;5073399;28;20435;-34
2022/06/23 09:47:21;;;;;;;8.55;3.90;;;;;;;27.24;43.73;96937.69;5073590;28;20039;-34
2022/06/23 09:50:27;;;;;;;8.70;4.15;;;;;;;27.26;43.85;96944.25;5056367;28;20078;-35
2022/06/23 09:53:17;;;;;;;8.50;4.57;;;;;;;27.07;45.92;96954.63;5073236;28;20032;-34
2022/06/23 09:56:03;;;;;;;9.32;4.25;;;;;;;27.23;44.11;96948.09;5073134;28;20101;-34
2022/06/23 09:58:32;;;;;;;6.25;4.13;;;;;;;27.11;45.38;96946.72;5073181;28;20040;-34
2022/06/23 10:01:14;;;;;;;6.95;4.07;;;;;;;27.21;45.04;96942.28;5072817;28;20029;-34
2022/06/23 10:03:58;;;;;;;6.25;4.03;;;;;;;27.24;44.43;96951.63;5078803;28;20035;-34
2022/06/23 10:06:35;;;;;;;5.38;4.13;;;;;;;27.25;44.61;96953.88;5095178;28;20043;-34
2022/06/23 10:09:28;;;;;;;6.03;4.32;;;;;;;26.99;48.24;96950.91;5095243;28;20048;-34
2022/06/23 10:12:26;;;;;;;7.90;4.50;;;;;;;27.02;47.30;96944.31;5095378;28;20066;-34
2022/06/23 10:15:40;;;;;;;7.25;4.35;;;;;;;27.10;46.66;96915.34;5081654;28;20035;-34
2022/06/23 10:18:33;;;;;;;5.13;4.15;;;;;;;27.13;46.51;96919.88;5078008;28;20068;-34
2022/06/23 10:21:16;;;;;;;4.25;3.63;;;;;;;27.16;46.08;96918.81;5094937;28;20078;-34
2022/06/23 10:24:13;;;;;;;7.30;4.32;;;;;;;27.21;44.56;96908.88;5094908;28;20028;-34
2022/06/23 10:27:23;;;;;;;7.38;4.05;;;;;;;27.21;44.41;96917.22;5094592;28;20032;-34
2022/06/23 10:30:26;;;;;;;5.80;3.67;;;;;;;27.16;44.56;96906.94;5072346;28;20394;-34
2022/06/23 10:33:16;;;;;;;6.63;5.43;;;;;;;27.04;47.68;96913.91;5072598;28;20056;-34
2022/06/23 10:36:18;;;;;;;6.60;5.25;;;;;;;26.83;49.03;96927.53;5072188;28;20355;-34
2022/06/23 10:38:58;;;;;;;10.60;5.37;;;;;;;27.00;48.46;96930.16;5055665;28;20032;-35
2022/06/23 10:41:47;;;;;;;6.35;5.03;;;;;;;26.86;49.64;96934.84;5072112;28;20060;-34
2022/06/23 10:44:44;;;;;;;9.32;5.40;;;;;;;26.91;49.03;96913.78;5053580;28;20485;-34
2022/06/23 10:47:47;;;;;;;6.40;5.28;;;;;;;27.00;47.97;96919.78;5068937;28;20040;-34
2022/06/23 10:50:20;;;;;;;6.77;5.50;;;;;;;27.08;48.19;96884.47;5071941;28;20024;-34
2022/06/23 10:52:45;;;;;;;;;;;;;;;27.15;46.03;96891.50;5072543;28;20063;-34
2022/06/23 10:56:01;;;;;;;5.60;5.00;;;;;;;26.86;50.88;96898.66;5071729;28;19951;-35
2022/06/23 10:58:48;;;;;;;8.93;5.25;;;;;;;26.84;50.68;96896.41;5031778;28;20278;-34
2022/06/23 11:01:42;;;;;;;9.48;4.70;;;;;;;27.05;47.17;96884.81;5032084;28;20065;-34
2022/06/23 11:04:40;;;;;;;7.95;5.18;;;;;;;26.95;49.20;96869.75;5031815;28;20140;-34
2022/06/23 11:07:17;;;;;;;11.25;5.65;;;;;;;26.95;47.02;96887.22;5051093;28;20041;-34
2022/06/23 11:10:19;;;;;;;6.38;4.90;;;;;;;27.14;46.14;96878.84;5052033;28;20040;-35
2022/06/23 11:13:11;;;;;;;5.78;5.15;;;;;;;27.05;48.23;96846.59;5044898;28;20639;-34
2022/06/23 11:16:07;;;;;;;8.75;5.50;;;;;;;27.03;48.36;96848.38;5051670;28;20041;-34
2022/06/23 11:18:47;;;;;;;10.90;5.75;;;;;;;26.84;50.95;96842.78;5051519;28;20055;-34
2022/06/23 11:21:33;;;;;;;8.70;5.25;;;;;;;26.91;48.90;96855.34;5051506;28;20033;-34
2022/06/23 11:24:30;;;;;;;9.68;5.97;;;;;;;26.89;51.06;96846.78;5051463;28;20033;-34
2022/06/23 11:27:07;;;;;;;6.72;5.15;;;;;;;26.90;49.48;96854.59;5050825;28;20036;-36
2022/06/23 11:30:03;;;;;;;8.20;5.13;;;;;;;27.11;47.21;96868.75;5051327;28;20025;-34
2022/06/23 11:32:31;;;;;;;7.30;5.55;;;;;;;27.02;47.69;96863.59;5051287;28;20052;-34
2022/06/23 11:35:23;;;;;;;18.08;6.40;;;;;;;26.81;49.45;96855.72;5093862;28;20079;-34
2022/06/23 11:38:17;;;;;;;11.30;6.07;;;;;;;26.95;48.17;96850.28;5093602;28;20020;-34
2022/06/23 11:41:20;;;;;;;11.13;5.65;;;;;;;26.96;49.57;96844.16;5093494;28;20473;-35
2022/06/23 11:44:24;;;;;;;11.40;6.10;;;;;;;27.09;47.68;96840.69;5093494;28;20361;-34
2022/06/23 11:47:21;;;;;;;7.35;5.10;;;;;;;27.14;47.27;96837.84;5093177;28;20040;-34
2022/06/23 11:50:11;;;;;;;10.63;5.75;;;;;;;27.15;46.80;96831.00;5093471;28;20031;-34
2022/06/23 11:52:54;;;;;;;7.60;4.70;;;;;;;27.21;45.23;96833.69;5093433;28;20082;-34
2022/06/23 11:55:57;;;;;;;8.90;5.10;;;;;;;27.20;45.23;96826.63;5093360;28;20020;-34
2022/06/23 11:58:50;;;;;;;9.75;5.25;;;;;;;27.19;45.84;96819.56;5091536;28;20050;-34
2022/06/23 12:01:20;;;;;;;12.65;5.00;;;;;;;27.21;45.31;96797.50;5093257;28;20028;-34
2022/06/23 12:04:04;;;;;;;10.57;5.75;;;;;;;27.16;46.00;96795.56;5093306;28;20052;-34
2022/06/23 12:07:02;;;;;;;7.75;4.88;;;;;;;27.22;44.82;96801.78;5093133;28;20027;-34
2022/06/23 12:10:01;;;;;;;7.85;5.30;;;;;;;27.17;45.27;96799.84;5093205;28;20020;-34
2022/06/23 12:12:30;;;;;;;7.95;4.97;;;;;;;27.22;45.03;96807.34;5091687;28;20031;-34
2022/06/23 12:14:56;;;;;;;7.57;5.10;;;;;;;27.21;45.10;96800.28;5093389;28;20031;-35
2022/06/23 12:17:46;;;;;;;8.25;4.78;;;;;;;27.26;45.85;96805.03;5092153;28;20032;-34
2022/06/23 12:20:23;;;;;;;9.05;4.82;;;;;;;27.25;44.85;96803.53;5092793;28;20020;-34
2022/06/23 12:23:01;;;;;;;6.32;5.00;;;;;;;27.12;45.27;96806.25;5093244;28;20024;-34
2022/06/23 12:25:55;;;;;;;8.60;5.40;;;;;;;27.15;45.51;96819.13;5093189;28;20039;-34
2022/06/23 12:28:55;;;;;;;7.60;4.68;;;;;;;27.25;45.28;96820.22;5093143;28;20110;-35
2022/06/23 12:31:38;;;;;;;6.50;5.30;;;;;;;27.24;44.95;96827.06;5093195;28;20024;-34
2022/06/23 12:34:19;;;;;;;8.68;5.00;;;;;;;27.26;45.32;96821.72;5092799;28;20162;-34
2022/06/23 12:37:02;;;;;;;6.82;4.78;;;;;;;27.24;44.90;96827.06;5092966;28;20095;-34
2022/06/23 12:39:41;;;;;;;;;;;;;;;27.22;45.71;96832.41;5095335;28;20052;-34
2022/06/23 12:42:21;;;;;;;8.93;5.05;;;;;;;27.21;45.04;96828.13;5097032;28;19919;-34
2022/06/23 12:45:20;;;;;;;11.55;5.15;;;;;;;27.24;45.32;96827.06;5096788;28;20020;-35
2022/06/23 12:48:07;;;;;;;7.47;4.47;;;;;;;27.29;45.47;96836.63;5096637;28;20028;-34